Time;durP1;ratioP1;P1;durP2;ratioP2;P2;SDS_P1;SDS_P2;PMS_P1;PMS_P2;Temp;Humidity;BMP_temperature;BMP_pressure;BME280_temperature;BME280_humidity;BME280_pressure;Samples;Min_cycle;Max_cycle;Signal;HPM_P1;HPM_P2
2023/08/08 00:04:42;;;;;;;9.63;3.50;;;15.40;99.90;;;;;;20755558;28;20045;-78
2023/08/08 00:14:42;;;;;;;7.67;3.57;;;15.30;99.90;;;;;;20758515;28;20045;-78
2023/08/08 00:24:43;;;;;;;7.85;3.22;;;15.20;99.90;;;;;;20751959;28;20053;-78
2023/08/08 00:34:44;;;;;;;10.10;3.53;;;15.20;99.90;;;;;;20751499;28;20046;-78
2023/08/08 00:44:44;;;;;;;9.95;3.58;;;15.10;99.90;;;;;;20749798;28;20049;-78
2023/08/08 00:54:45;;;;;;;11.97;3.30;;;15.20;99.90;;;;;;20748768;28;20037;-78
2023/08/08 01:04:46;;;;;;;9.90;3.40;;;15.20;99.90;;;;;;20749111;28;20460;-78
2023/08/08 01:14:46;;;;;;;8.90;3.85;;;15.20;99.90;;;;;;20754380;28;20587;-78
2023/08/08 01:24:47;;;;;;;8.52;3.60;;;15.10;99.90;;;;;;20752308;28;20098;-78
2023/08/08 01:34:48;;;;;;;9.23;3.30;;;15.10;99.90;;;;;;20745618;28;20124;-79
2023/08/08 01:44:49;;;;;;;8.75;3.10;;;15.00;99.90;;;;;;20751110;28;20625;-79
2023/08/08 01:54:50;;;;;;;10.30;3.17;;;15.00;99.90;;;;;;20752863;28;20053;-79
2023/08/08 02:04:50;;;;;;;9.85;3.40;;;15.00;99.90;;;;;;20766908;28;20042;-79
2023/08/08 02:14:51;;;;;;;6.22;2.80;;;15.00;99.90;;;;;;20774546;28;20396;-79
2023/08/08 02:24:51;;;;;;;7.32;3.05;;;15.00;99.90;;;;;;20763902;28;20456;-79
2023/08/08 02:34:52;;;;;;;4.80;2.72;;;14.90;99.90;;;;;;20762146;28;20687;-78
2023/08/08 02:44:52;;;;;;;6.97;2.85;;;14.80;99.90;;;;;;20771500;28;20196;-78
2023/08/08 02:54:53;;;;;;;4.97;2.50;;;14.70;99.90;;;;;;20762778;28;20044;-78
2023/08/08 03:04:53;;;;;;;6.38;2.53;;;14.70;99.90;;;;;;20789338;28;20053;-78
2023/08/08 03:14:54;;;;;;;4.38;2.25;;;14.60;99.90;;;;;;20783544;28;20945;-77
2023/08/08 03:24:55;;;;;;;7.03;2.20;;;14.40;99.90;;;;;;20789098;28;20103;-78
2023/08/08 03:34:55;;;;;;;5.30;2.30;;;14.40;99.90;;;;;;20841333;28;20102;-78
2023/08/08 03:44:56;;;;;;;5.30;2.55;;;14.30;99.90;;;;;;20841880;28;20161;-78
2023/08/08 03:54:56;;;;;;;5.63;2.10;;;14.30;99.90;;;;;;20773845;28;20033;-78
2023/08/08 04:04:57;;;;;;;4.97;2.17;;;14.30;90.20;;;;;;20761471;28;20393;-78
2023/08/08 04:14:57;;;;;;;2.90;1.85;;;14.20;61.70;;;;;;20759661;28;20040;-78
2023/08/08 04:24:58;;;;;;;4.10;2.58;;;14.00;67.30;;;;;;20753367;28;20044;-78
2023/08/08 04:34:58;;;;;;;5.55;1.70;;;14.00;73.70;;;;;;20758536;28;20050;-78
2023/08/08 04:44:59;;;;;;;5.60;2.08;;;13.90;99.90;;;;;;20756796;28;20046;-78
2023/08/08 04:54:59;;;;;;;4.95;1.70;;;14.00;99.90;;;;;;20755182;28;20392;-79
2023/08/08 05:05:00;;;;;;;10.82;2.97;;;13.90;99.90;;;;;;20756090;28;20148;-78
2023/08/08 05:15:01;;;;;;;3.83;1.60;;;13.90;99.90;;;;;;20757789;28;20557;-78
2023/08/08 05:25:01;;;;;;;4.67;1.60;;;14.00;99.90;;;;;;20753525;28;20578;-78
2023/08/08 05:35:04;;;;;;;4.50;1.63;;;14.40;99.90;;;;;;20748642;28;20484;-78
2023/08/08 05:45:05;;;;;;;6.30;1.38;;;14.70;66.30;;;;;;20775331;28;20033;-78
2023/08/08 05:55:06;;;;;;;5.47;2.17;;;15.10;4.80;;;;;;20793673;28;20053;-78
2023/08/08 06:05:07;;;;;;;8.45;1.48;;;15.70;1.00;;;;;;20783905;28;20034;-77
2023/08/08 06:15:08;;;;;;;3.75;1.00;;;15.50;1.00;;;;;;20796953;28;20124;-78
2023/08/08 06:25:09;;;;;;;2.58;1.20;;;15.60;1.00;;;;;;20797620;28;20041;-78
2023/08/08 06:35:09;;;;;;;9.23;2.75;;;15.40;1.00;;;;;;20738387;28;20088;-77
2023/08/08 06:45:10;;;;;;;5.07;2.25;;;15.60;1.00;;;;;;20767824;28;20068;-78
2023/08/08 06:55:11;;;;;;;4.35;1.00;;;15.70;1.00;;;;;;20764066;28;20044;-78
2023/08/08 07:05:11;;;;;;;8.10;2.28;;;15.90;1.00;;;;;;20775056;28;20452;-78
2023/08/08 07:15:12;;;;;;;3.47;1.23;;;16.20;1.00;;;;;;20759148;28;20041;-79
2023/08/08 07:25:13;;;;;;;4.10;0.73;;;16.50;1.00;;;;;;20773091;28;20120;-79
2023/08/08 07:35:15;;;;;;;5.45;1.10;;;16.60;1.00;;;;;;20763006;28;20511;-80
2023/08/08 07:45:16;;;;;;;4.72;0.60;;;16.70;1.00;;;;;;20770555;28;20072;-80
2023/08/08 07:55:16;;;;;;;2.30;0.60;;;16.90;1.00;;;;;;20768196;28;20091;-80
2023/08/08 08:05:18;;;;;;;1.70;0.50;;;17.20;1.00;;;;;;20768133;28;20099;-79
2023/08/08 08:15:18;;;;;;;2.03;0.50;;;17.30;1.00;;;;;;20760541;28;20485;-79
2023/08/08 08:25:19;;;;;;;3.40;1.33;;;17.40;1.00;;;;;;20778518;28;20509;-78
2023/08/08 08:35:20;;;;;;;3.15;0.40;;;17.70;1.00;;;;;;20740720;28;20563;-79
2023/08/08 08:45:22;;;;;;;4.15;0.50;;;18.10;1.00;;;;;;20743859;28;20041;-78
2023/08/08 08:55:22;;;;;;;2.10;0.50;;;18.00;1.00;;;;;;20747062;28;20397;-78
2023/08/08 09:05:25;;;;;;;5.70;0.90;;;18.10;1.00;;;;;;20750726;28;20416;-78
2023/08/08 09:15:30;;;;;;;2.20;0.52;;;18.30;1.00;;;;;;20773268;28;20037;-77
2023/08/08 09:25:31;;;;;;;1.63;0.60;;;18.50;1.00;;;;;;20794350;28;20045;-78
2023/08/08 09:35:31;;;;;;;1.80;0.60;;;18.70;1.00;;;;;;20774778;28;20048;-80
2023/08/08 09:45:41;;;;;;;3.15;0.60;;;19.00;1.00;;;;;;20771066;28;20033;-81
2023/08/08 09:55:43;;;;;;;3.67;2.50;;;19.70;1.00;;;;;;20767582;28;20060;-81
2023/08/08 10:05:45;;;;;;;1.65;0.60;;;20.00;1.00;;;;;;20770997;28;20060;-80
2023/08/08 10:15:45;;;;;;;4.85;0.60;;;19.90;1.00;;;;;;20781581;28;20555;-80
2023/08/08 10:25:48;;;;;;;3.80;0.57;;;20.50;1.00;;;;;;20775051;28;20244;-80
2023/08/08 10:36:04;;;;;;;1.30;0.40;;;20.40;1.00;;;;;;20777693;28;20038;-81
2023/08/08 10:46:05;;;;;;;3.50;0.70;;;20.10;1.00;;;;;;20777008;28;20038;-79
2023/08/08 10:56:06;;;;;;;1.80;0.50;;;19.90;1.00;;;;;;20775105;28;20044;-79
2023/08/08 11:06:08;;;;;;;1.10;0.40;;;20.00;1.00;;;;;;20797677;28;20071;-80
2023/08/08 11:16:09;;;;;;;2.33;0.60;;;20.20;1.00;;;;;;20777985;28;20041;-79
2023/08/08 11:26:09;;;;;;;4.55;0.82;;;20.10;1.00;;;;;;20740980;28;20103;-79
2023/08/08 11:36:10;;;;;;;5.32;1.38;;;20.40;1.00;;;;;;20768518;28;20056;-79
2023/08/08 11:46:14;;;;;;;5.32;1.88;;;20.70;1.00;;;;;;20777267;28;20394;-79
2023/08/08 11:56:15;;;;;;;1.60;0.60;;;21.30;1.00;;;;;;20747972;28;20443;-81
2023/08/08 12:06:17;;;;;;;1.60;0.52;;;20.70;1.00;;;;;;20768427;28;20943;-80
2023/08/08 12:16:18;;;;;;;1.33;0.50;;;20.50;1.00;;;;;;20749448;28;20189;-80
2023/08/08 12:26:19;;;;;;;1.92;0.60;;;20.40;1.00;;;;;;20765637;28;20080;-80
2023/08/08 12:36:21;;;;;;;2.75;0.40;;;20.50;1.00;;;;;;20768794;28;20060;-80
2023/08/08 12:46:21;;;;;;;1.77;0.55;;;20.50;1.00;;;;;;20759731;28;20053;-80
2023/08/08 12:56:22;;;;;;;1.50;0.80;;;20.40;1.00;;;;;;20763871;28;20030;-80
2023/08/08 13:06:22;;;;;;;3.30;0.75;;;20.50;1.00;;;;;;20749296;28;20544;-78
2023/08/08 13:16:23;;;;;;;3.70;0.73;;;20.70;1.00;;;;;;20738059;28;20413;-78
2023/08/08 13:26:25;;;;;;;2.05;0.50;;;20.50;1.00;;;;;;20732079;28;20052;-79
2023/08/08 13:36:26;;;;;;;2.65;0.70;;;20.40;1.00;;;;;;20738433;28;20053;-79
2023/08/08 13:46:26;;;;;;;6.15;1.13;;;20.20;1.00;;;;;;20757999;28;20504;-80
2023/08/08 13:56:27;;;;;;;3.75;0.70;;;20.50;1.00;;;;;;20756551;28;20057;-80
2023/08/08 14:06:28;;;;;;;2.08;0.77;;;20.50;1.00;;;;;;20778686;28;20029;-79
2023/08/08 14:16:29;;;;;;;2.00;0.70;;;20.30;1.00;;;;;;20757932;28;20041;-78
2023/08/08 14:26:29;;;;;;;2.13;0.50;;;20.30;1.00;;;;;;20734733;28;20037;-78
2023/08/08 14:36:30;;;;;;;2.50;0.63;;;20.50;1.00;;;;;;20761092;28;20049;-84
2023/08/08 14:46:33;;;;;;;2.60;0.90;;;20.70;1.00;;;;;;20785408;28;20049;-82
2023/08/08 14:56:34;;;;;;;1.13;0.60;;;20.50;1.00;;;;;;20782709;28;20136;-83
2023/08/08 15:26:57;;;;;;;2.83;0.90;;;20.40;1.00;;;;;;21214111;22;20045;-84
2023/08/08 15:37:01;;;;;;;3.40;0.80;;;20.10;1.00;;;;;;20912289;28;20059;-85
2023/08/08 15:47:01;;;;;;;1.92;0.80;;;19.90;1.00;;;;;;20784123;23;20124;-41
2023/08/08 15:57:04;;;;;;;3.42;1.40;;;20.00;1.00;;;;;;20724079;28;20062;-41
2023/08/08 16:07:04;;;;;;;3.40;1.27;;;19.70;1.00;;;;;;20741182;28;20563;-41
2023/08/08 16:17:05;;;;;;;3.50;1.40;;;19.40;1.00;;;;;;20769520;28;20491;-40
2023/08/08 16:27:06;;;;;;;3.78;2.15;;;19.20;1.00;;;;;;20784224;28;20041;-41
2023/08/08 16:37:07;;;;;;;5.07;1.30;;;18.90;1.00;;;;;;20781157;28;20037;-40
2023/08/08 16:47:07;;;;;;;3.03;1.48;;;18.70;1.00;;;;;;20816844;28;20045;-41
2023/08/08 16:57:08;;;;;;;6.53;1.40;;;18.50;1.00;;;;;;20816714;28;20739;-40
2023/08/08 17:07:09;;;;;;;3.40;1.40;;;18.00;1.00;;;;;;20827320;28;20049;-40
2023/08/08 17:17:09;;;;;;;4.82;1.80;;;17.60;1.00;;;;;;20831832;28;20116;-40
2023/08/08 17:27:10;;;;;;;5.35;1.77;;;17.40;1.00;;;;;;20820325;28;20037;-40
2023/08/08 17:37:11;;;;;;;6.43;2.15;;;17.10;1.00;;;;;;20822188;28;20119;-39
2023/08/08 17:47:11;;;;;;;2.78;1.70;;;16.70;1.00;;;;;;20845648;28;20106;-39
2023/08/08 17:57:14;;;;;;;4.00;2.00;;;16.50;1.00;;;;;;20852772;28;20036;-40
2023/08/08 18:07:14;;;;;;;6.60;2.20;;;16.30;1.00;;;;;;20858427;28;20048;-40
2023/08/08 18:17:15;;;;;;;6.57;2.10;;;16.60;1.00;;;;;;20811842;28;20555;-40
2023/08/08 18:27:16;;;;;;;5.22;2.10;;;16.40;1.00;;;;;;20850474;28;20065;-40
2023/08/08 18:37:16;;;;;;;4.50;1.65;;;16.10;1.00;;;;;;20806383;28;20135;-40
2023/08/08 18:47:17;;;;;;;3.65;1.50;;;16.10;1.00;;;;;;20832042;28;20049;-40
2023/08/08 18:57:17;;;;;;;3.85;1.88;;;16.00;1.00;;;;;;20832542;28;20049;-40
2023/08/08 19:07:18;;;;;;;5.07;1.90;;;16.00;1.00;;;;;;20861288;28;20048;-40
2023/08/08 19:17:18;;;;;;;6.95;2.55;;;15.90;1.00;;;;;;20847231;28;20110;-40
2023/08/08 19:27:21;;;;;;;5.00;2.05;;;15.80;1.00;;;;;;20832044;28;20052;-40
2023/08/08 19:37:22;;;;;;;5.13;2.25;;;15.60;16.50;;;;;;20840991;28;20041;-41
2023/08/08 19:47:22;;;;;;;6.68;2.67;;;15.30;46.90;;;;;;20819634;28;20384;-40
2023/08/08 19:57:23;;;;;;;6.70;2.53;;;15.30;61.00;;;;;;20829629;28;20495;-40
2023/08/08 20:07:23;;;;;;;5.13;2.55;;;15.20;80.50;;;;;;20818271;28;20088;-40
2023/08/08 20:17:24;;;;;;;4.35;2.30;;;15.20;56.60;;;;;;20841723;28;20041;-40
2023/08/08 20:27:24;;;;;;;5.30;2.65;;;15.10;67.90;;;;;;20806480;28;20721;-40
2023/08/08 20:37:25;;;;;;;5.57;3.05;;;15.00;99.90;;;;;;20815904;28;20049;-40
2023/08/08 20:47:25;;;;;;;7.05;3.40;;;14.90;99.90;;;;;;20814782;28;20115;-40
2023/08/08 20:57:26;;;;;;;7.78;4.13;;;14.80;99.90;;;;;;20835038;28;20033;-40
2023/08/08 21:07:27;;;;;;;7.22;4.88;;;14.60;99.90;;;;;;20838111;28;20037;-40
2023/08/08 21:17:27;;;;;;;7.97;5.97;;;14.60;99.90;;;;;;20839806;28;20042;-39
2023/08/08 21:27:28;;;;;;;7.68;6.18;;;14.70;99.90;;;;;;20838186;28;20561;-40
2023/08/08 21:37:29;;;;;;;9.63;7.35;;;14.60;99.90;;;;;;20842520;28;20033;-40
2023/08/08 21:47:29;;;;;;;15.43;10.00;;;14.60;99.90;;;;;;20850174;28;20037;-40
2023/08/08 21:57:31;;;;;;;13.85;10.10;;;14.60;99.90;;;;;;20843649;28;20041;-40
2023/08/08 22:07:32;;;;;;;13.48;10.13;;;14.60;99.90;;;;;;20841574;28;20061;-40
2023/08/08 22:17:33;;;;;;;15.48;10.57;;;14.60;99.90;;;;;;20832884;28;20033;-40
2023/08/08 22:27:34;;;;;;;17.30;11.82;;;14.60;99.90;;;;;;20839781;28;20564;-40
2023/08/08 22:37:34;;;;;;;13.93;9.80;;;14.50;99.90;;;;;;20838267;28;20116;-40
2023/08/08 22:47:36;;;;;;;17.73;9.80;;;14.40;99.90;;;;;;20835576;28;20045;-40
2023/08/08 22:57:36;;;;;;;15.55;11.07;;;14.40;99.90;;;;;;20826924;28;20440;-40
2023/08/08 23:07:38;;;;;;;15.85;10.95;;;14.30;99.90;;;;;;20832375;28;20128;-40
2023/08/08 23:17:38;;;;;;;16.70;10.80;;;14.20;99.90;;;;;;20834420;28;20554;-40
2023/08/08 23:27:39;;;;;;;16.63;11.45;;;14.20;99.90;;;;;;20832190;28;20080;-40
2023/08/08 23:37:39;;;;;;;17.30;11.55;;;14.10;99.90;;;;;;20832828;28;20042;-40
2023/08/08 23:47:41;;;;;;;18.83;12.43;;;14.00;99.90;;;;;;20851214;28;20064;-40
2023/08/08 23:57:41;;;;;;;19.42;12.85;;;13.90;99.90;;;;;;20830724;28;20065;-40
